Time;durP1;ratioP1;P1;durP2;ratioP2;P2;SDS_P1;SDS_P2;PMS_P1;PMS_P2;Temp;Humidity;BMP_temperature;BMP_pressure;BME280_temperature;BME280_humidity;BME280_pressure;Samples;Min_cycle;Max_cycle;Signal;HPM_P1;HPM_P2
2023/05/15 06:31:52;;;;;;;7.68;5.45;;;13.40;99.90;;;;;;6817777;23;20078;-75
2023/05/15 06:34:54;;;;;;;7.78;4.93;;;13.40;99.90;;;;;;6219943;28;20046;-75
2023/05/15 06:37:56;;;;;;;7.03;5.05;;;13.40;99.90;;;;;;6223947;28;20057;-75
2023/05/15 06:40:57;;;;;;;7.78;5.28;;;13.40;99.90;;;;;;6200603;28;20325;-76
2023/05/15 06:43:59;;;;;;;7.53;5.05;;;13.50;99.90;;;;;;6200742;28;20047;-75
2023/05/15 06:47:03;;;;;;;6.70;4.80;;;13.50;99.90;;;;;;6200465;28;20160;-75
2023/05/15 06:50:06;;;;;;;6.57;4.70;;;13.60;99.90;;;;;;6200369;28;20117;-75
2023/05/15 06:53:07;;;;;;;6.55;4.68;;;13.60;99.90;;;;;;6200406;28;20058;-75
2023/05/15 06:56:09;;;;;;;8.27;5.40;;;13.60;99.90;;;;;;6200262;28;20496;-75
2023/05/15 06:59:11;;;;;;;7.30;5.10;;;13.70;99.90;;;;;;6200516;28;20050;-75
2023/05/15 07:02:14;;;;;;;7.57;4.95;;;13.80;99.90;;;;;;6215295;28;20050;-75
2023/05/15 07:05:16;;;;;;;7.53;5.32;;;13.80;99.90;;;;;;6224725;28;20050;-75
2023/05/15 07:08:18;;;;;;;7.85;4.78;;;13.90;99.90;;;;;;6224548;28;20057;-73
2023/05/15 07:11:20;;;;;;;7.55;4.75;;;14.00;99.90;;;;;;6224521;28;20046;-76
2023/05/15 07:14:22;;;;;;;6.90;5.00;;;14.00;99.90;;;;;;6224296;28;20391;-74
2023/05/15 07:17:25;;;;;;;7.35;4.80;;;14.00;99.90;;;;;;6204913;28;20057;-75
2023/05/15 07:20:28;;;;;;;7.28;5.15;;;14.00;99.90;;;;;;6200008;28;20045;-74
2023/05/15 07:23:29;;;;;;;8.77;5.55;;;14.10;99.90;;;;;;6199640;28;20046;-75
2023/05/15 07:26:32;;;;;;;7.25;5.22;;;14.10;99.90;;;;;;6199804;28;20507;-75
2023/05/15 07:29:34;;;;;;;8.10;5.70;;;14.10;99.90;;;;;;6212153;28;20494;-75
2023/05/15 07:32:38;;;;;;;9.48;5.93;;;14.20;99.90;;;;;;6223865;28;20454;-75
2023/05/15 07:35:40;;;;;;;7.65;5.45;;;14.30;99.90;;;;;;6223590;28;20057;-76
2023/05/15 07:38:42;;;;;;;8.85;6.63;;;14.30;99.90;;;;;;6224120;28;20053;-75
2023/05/15 07:41:45;;;;;;;10.18;6.50;;;14.40;99.90;;;;;;6223893;28;20053;-74
2023/05/15 07:44:47;;;;;;;7.93;5.57;;;14.30;99.90;;;;;;6207172;28;20447;-75
2023/05/15 07:47:51;;;;;;;9.70;6.00;;;14.40;99.90;;;;;;6199573;28;20042;-74
2023/05/15 07:50:54;;;;;;;10.15;5.97;;;14.50;99.90;;;;;;6199575;28;20482;-76
2023/05/15 07:53:55;;;;;;;8.77;5.85;;;14.50;99.90;;;;;;6199374;28;20046;-76
2023/05/15 07:56:57;;;;;;;8.88;5.70;;;14.60;99.90;;;;;;6201971;28;20058;-76
2023/05/15 08:00:01;;;;;;;8.75;5.38;;;14.70;99.90;;;;;;6201983;28;20053;-76
2023/05/15 08:03:04;;;;;;;8.60;5.55;;;14.70;99.90;;;;;;6201746;28;20173;-76
2023/05/15 08:06:07;;;;;;;8.23;6.00;;;14.80;99.90;;;;;;6208915;28;20050;-76
2023/05/15 08:09:09;;;;;;;8.30;5.93;;;14.90;99.90;;;;;;6223228;28;20046;-76
2023/05/15 08:12:19;;;;;;;9.27;5.82;;;15.00;99.90;;;;;;6223459;28;20450;-75
2023/05/15 08:15:22;;;;;;;9.30;5.22;;;15.10;99.90;;;;;;6223560;28;20048;-74
2023/05/15 08:18:25;;;;;;;7.85;5.18;;;15.20;99.90;;;;;;6223593;28;20085;-75
2023/05/15 08:21:28;;;;;;;9.43;5.82;;;15.30;99.90;;;;;;6221817;28;20049;-75
2023/05/15 08:24:30;;;;;;;8.48;6.07;;;15.30;99.90;;;;;;6222747;28;20184;-74
2023/05/15 08:27:33;;;;;;;8.80;5.97;;;15.40;99.90;;;;;;6223256;28;20045;-75
2023/05/15 08:30:35;;;;;;;7.18;5.13;;;15.50;99.90;;;;;;6223190;28;20073;-74
2023/05/15 08:33:38;;;;;;;11.00;6.88;;;15.60;99.90;;;;;;6223113;28;20411;-74
2023/05/15 08:36:40;;;;;;;12.13;7.75;;;15.80;99.90;;;;;;6222913;28;20065;-76
2023/05/15 08:39:42;;;;;;;10.23;7.30;;;15.90;99.90;;;;;;6223173;28;20414;-76
2023/05/15 08:42:47;;;;;;;9.15;6.63;;;15.90;99.90;;;;;;6222974;28;20046;-73
2023/05/15 08:45:49;;;;;;;9.52;6.47;;;16.00;99.90;;;;;;6223047;28;20053;-75
2023/05/15 08:48:54;;;;;;;10.30;7.15;;;16.00;99.90;;;;;;6224361;28;20056;-74
2023/05/15 08:51:56;;;;;;;13.00;9.02;;;16.10;99.90;;;;;;6204926;28;20050;-75
2023/05/15 08:54:59;;;;;;;13.98;9.88;;;16.10;99.90;;;;;;6203835;28;20054;-73
2023/05/15 08:58:02;;;;;;;11.70;8.50;;;16.20;99.90;;;;;;6227765;28;20045;-75
2023/05/15 09:01:04;;;;;;;12.90;9.00;;;16.20;99.90;;;;;;6217614;28;20055;-75
2023/05/15 09:04:07;;;;;;;14.85;8.82;;;16.30;99.90;;;;;;6203099;28;20057;-76
2023/05/15 09:07:10;;;;;;;14.25;9.48;;;16.30;99.90;;;;;;6202678;28;20050;-75
2023/05/15 09:10:13;;;;;;;12.60;8.80;;;16.50;99.90;;;;;;6217856;28;20057;-73
2023/05/15 09:13:16;;;;;;;;;;;16.70;99.90;;;;;;6227613;28;20050;-74
2023/05/15 09:16:19;;;;;;;12.77;8.50;;;16.80;99.90;;;;;;6227758;28;19921;-73
2023/05/15 09:19:23;;;;;;;9.90;6.72;;;16.80;99.90;;;;;;6206747;28;20315;-76
2023/05/15 09:22:25;;;;;;;10.45;6.38;;;16.90;99.90;;;;;;6202771;28;20432;-76
2023/05/15 09:25:37;;;;;;;10.63;7.07;;;16.90;99.90;;;;;;6202649;28;20050;-76
2023/05/15 09:28:39;;;;;;;9.75;6.97;;;17.00;99.90;;;;;;6202272;28;20047;-76
2023/05/15 09:31:41;;;;;;;8.88;6.30;;;17.00;99.40;;;;;;6202336;28;20050;-75
2023/05/15 09:34:45;;;;;;;9.57;6.05;;;17.00;99.00;;;;;;6202445;28;20050;-76
2023/05/15 09:37:58;;;;;;;9.00;5.97;;;17.10;99.20;;;;;;6202549;28;20050;-75
2023/05/15 09:41:05;;;;;;;8.35;5.85;;;17.10;98.50;;;;;;6202198;28;20080;-75
2023/05/15 09:44:19;;;;;;;7.05;4.78;;;17.00;98.50;;;;;;6202211;28;20547;-74
2023/05/15 09:47:21;;;;;;;9.20;5.72;;;16.90;99.90;;;;;;6198913;28;20073;-74
2023/05/15 09:50:33;;;;;;;8.32;4.95;;;17.00;98.30;;;;;;6205095;28;20057;-77
2023/05/15 09:53:37;;;;;;;7.60;5.20;;;17.10;98.60;;;;;;6222632;28;20050;-78
2023/05/15 09:56:41;;;;;;;6.50;4.70;;;17.10;98.80;;;;;;6222976;28;20054;-78
2023/05/15 09:59:47;;;;;;;7.85;5.40;;;17.10;98.40;;;;;;6221883;28;20407;-79
2023/05/15 10:02:49;;;;;;;7.10;5.18;;;17.10;98.60;;;;;;6222619;28;20399;-78
2023/05/15 10:06:00;;;;;;;7.28;5.13;;;17.30;98.70;;;;;;6199163;28;20046;-80
2023/05/15 10:09:03;;;;;;;7.70;5.15;;;17.50;97.60;;;;;;6198230;28;20054;-79
2023/05/15 10:12:08;;;;;;;9.27;5.53;;;17.40;97.40;;;;;;6198215;28;20563;-79
2023/05/15 10:15:11;;;;;;;7.60;5.10;;;17.50;97.90;;;;;;6198229;28;20053;-79
2023/05/15 10:18:14;;;;;;;7.07;4.22;;;17.50;98.00;;;;;;6198044;28;20050;-78
2023/05/15 10:21:20;;;;;;;6.67;4.30;;;17.40;97.30;;;;;;6197741;28;20053;-78
2023/05/15 10:24:23;;;;;;;8.00;4.25;;;17.30;96.00;;;;;;6202321;28;20045;-78
2023/05/15 10:27:26;;;;;;;6.90;3.95;;;17.30;97.90;;;;;;6222616;28;20060;-79
2023/05/15 10:30:29;;;;;;;5.70;3.80;;;17.30;98.50;;;;;;6222074;28;20046;-80
2023/05/15 10:33:32;;;;;;;5.93;3.92;;;17.10;99.20;;;;;;6222196;28;20057;-80
2023/05/15 10:36:37;;;;;;;5.97;4.28;;;17.10;99.00;;;;;;6206211;28;20046;-80
2023/05/15 10:39:40;;;;;;;6.60;4.05;;;17.10;99.10;;;;;;6203443;28;20053;-78
2023/05/15 10:42:44;;;;;;;6.43;4.28;;;17.10;98.40;;;;;;6200392;28;20050;-78
2023/05/15 10:45:46;;;;;;;6.38;4.13;;;17.10;98.80;;;;;;6221561;28;20057;-78
2023/05/15 10:48:48;;;;;;;5.78;3.95;;;17.20;98.40;;;;;;6222902;28;20054;-77
2023/05/15 10:51:52;;;;;;;5.55;3.60;;;17.20;98.50;;;;;;6222082;28;20495;-80
2023/05/15 10:54:55;;;;;;;5.93;3.42;;;17.20;98.80;;;;;;6220896;28;20053;-78
2023/05/15 10:57:57;;;;;;;6.03;3.30;;;17.30;98.50;;;;;;6225510;28;20064;-80
2023/05/15 11:00:59;;;;;;;4.90;3.50;;;17.40;97.80;;;;;;6227283;28;20487;-78
2023/05/15 11:04:10;;;;;;;6.80;4.05;;;17.50;97.60;;;;;;6224924;28;20396;-79
2023/05/15 11:07:16;;;;;;;6.10;3.55;;;17.60;96.80;;;;;;6224290;28;20050;-78
2023/05/15 11:10:38;;;;;;;5.10;3.40;;;17.60;97.00;;;;;;6224214;28;20056;-79
2023/05/15 11:14:14;;;;;;;4.95;3.22;;;17.60;95.90;;;;;;6221669;28;20053;-79
2023/05/15 11:17:16;;;;;;;6.90;3.75;;;17.70;95.70;;;;;;6221384;28;20050;-79
2023/05/15 11:20:18;;;;;;;5.43;3.65;;;17.80;96.10;;;;;;6221355;28;20419;-76
2023/05/15 11:23:23;;;;;;;4.68;3.35;;;17.80;94.40;;;;;;6218367;28;20054;-80
2023/05/15 11:26:33;;;;;;;4.82;3.20;;;17.90;94.90;;;;;;6218661;28;20054;-78
2023/05/15 11:29:35;;;;;;;4.25;2.88;;;18.00;95.40;;;;;;6221031;28;20057;-77
2023/05/15 11:32:53;;;;;;;5.65;3.45;;;18.10;95.30;;;;;;6220986;28;20412;-79
2023/05/15 11:36:00;;;;;;;44.75;25.38;;;18.10;94.10;;;;;;6218885;28;20407;-79
2023/05/15 11:39:10;;;;;;;12.27;6.80;;;18.30;94.40;;;;;;6220809;28;20050;-79
2023/05/15 11:42:13;;;;;;;8.75;5.35;;;18.40;94.50;;;;;;6220760;28;20054;-80
2023/05/15 11:45:15;;;;;;;5.75;4.00;;;18.60;93.90;;;;;;6220309;28;20056;-79
2023/05/15 11:48:18;;;;;;;6.97;3.58;;;18.70;94.00;;;;;;6216214;28;20061;-78
2023/05/15 11:51:23;;;;;;;5.53;3.45;;;18.70;94.40;;;;;;6220543;28;20049;-78
2023/05/15 11:54:27;;;;;;;5.00;3.10;;;18.70;93.70;;;;;;6220480;28;20135;-77
2023/05/15 11:57:29;;;;;;;6.18;3.50;;;18.60;93.10;;;;;;6220502;28;20050;-80
2023/05/15 12:00:32;;;;;;;6.07;3.30;;;18.60;92.60;;;;;;6220317;28;20069;-80
2023/05/15 12:03:34;;;;;;;6.97;4.32;;;18.60;92.90;;;;;;6205851;28;20518;-77
2023/05/15 12:06:36;;;;;;;5.50;3.63;;;18.70;93.00;;;;;;6195880;28;20058;-80
2023/05/15 12:09:40;;;;;;;6.45;3.65;;;18.70;92.30;;;;;;6195891;28;20050;-79
2023/05/15 12:12:43;;;;;;;6.78;2.88;;;18.80;92.00;;;;;;6195923;28;20050;-79
2023/05/15 12:15:46;;;;;;;4.30;2.80;;;18.90;91.70;;;;;;6197350;28;20054;-79
2023/05/15 12:18:48;;;;;;;;;;;19.10;91.60;;;;;;6196497;28;20057;-79
2023/05/15 12:21:50;;;;;;;4.30;2.63;;;19.30;91.30;;;;;;6194198;28;19922;-80
2023/05/15 12:24:53;;;;;;;3.88;2.38;;;19.40;91.40;;;;;;6200983;28;20423;-79
2023/05/15 12:27:55;;;;;;;6.30;2.83;;;19.30;87.20;;;;;;6201767;28;20484;-80
2023/05/15 12:30:58;;;;;;;4.80;2.78;;;19.50;88.40;;;;;;6200680;28;20054;-78
2023/05/15 12:34:00;;;;;;;6.80;3.60;;;19.50;89.60;;;;;;6200577;28;20053;-79
2023/05/15 12:37:03;;;;;;;4.63;2.70;;;19.70;87.60;;;;;;6200866;28;20061;-79
2023/05/15 12:40:09;;;;;;;6.10;3.17;;;19.60;88.60;;;;;;6200470;28;20046;-76
2023/05/15 12:43:11;;;;;;;4.82;2.90;;;19.80;89.30;;;;;;6215535;28;20499;-80
2023/05/15 12:46:14;;;;;;;4.80;3.38;;;19.70;88.60;;;;;;6225673;28;20054;-78
2023/05/15 12:49:22;;;;;;;5.05;2.80;;;19.60;91.20;;;;;;6218991;28;20050;-81
2023/05/15 12:52:28;;;;;;;5.53;3.30;;;19.20;91.80;;;;;;6201204;28;20061;-78
2023/05/15 12:55:32;;;;;;;4.57;3.00;;;18.80;92.20;;;;;;6200968;28;20050;-79
2023/05/15 12:58:35;;;;;;;5.70;3.00;;;19.10;92.70;;;;;;6200103;28;20050;-78
2023/05/15 13:01:37;;;;;;;5.57;3.13;;;19.20;91.40;;;;;;6199909;28;20555;-76
2023/05/15 13:04:39;;;;;;;7.00;3.35;;;19.10;91.20;;;;;;6200161;28;20050;-81
2023/05/15 13:07:43;;;;;;;4.45;2.92;;;18.90;92.30;;;;;;6200000;28;20054;-78
2023/05/15 13:10:47;;;;;;;6.18;3.05;;;19.10;92.50;;;;;;6200626;28;20050;-79
2023/05/15 13:13:50;;;;;;;4.57;2.95;;;19.20;91.80;;;;;;6198665;28;20050;-78
2023/05/15 13:16:52;;;;;;;4.83;2.73;;;19.10;91.10;;;;;;6199889;28;20067;-78
2023/05/15 13:19:54;;;;;;;4.28;2.60;;;19.20;90.70;;;;;;6200794;28;20061;-78
2023/05/15 13:22:56;;;;;;;4.22;2.60;;;19.00;90.00;;;;;;6197350;28;20054;-79
2023/05/15 13:25:59;;;;;;;9.82;2.90;;;19.00;90.40;;;;;;6199138;28;20051;-80
2023/05/15 13:29:01;;;;;;;5.18;3.10;;;18.80;91.30;;;;;;6199416;28;20386;-79
2023/05/15 13:32:03;;;;;;;7.03;3.05;;;18.70;92.10;;;;;;6199139;28;20488;-79
2023/05/15 13:35:07;;;;;;;5.90;3.00;;;18.80;92.00;;;;;;6213016;28;20046;-76
2023/05/15 13:38:10;;;;;;;6.18;2.90;;;18.80;92.00;;;;;;6208897;28;20094;-79
2023/05/15 13:41:13;;;;;;;4.57;3.05;;;19.20;92.00;;;;;;6199482;28;20053;-79
2023/05/15 13:44:15;;;;;;;4.80;2.83;;;19.30;92.30;;;;;;6199855;28;20045;-80
2023/05/15 13:47:17;;;;;;;5.07;2.88;;;19.30;92.10;;;;;;6198645;28;20051;-78
2023/05/15 13:50:19;;;;;;;5.32;2.95;;;19.10;92.70;;;;;;6198827;28;20050;-79
2023/05/15 13:53:20;;;;;;;6.78;3.35;;;19.20;93.20;;;;;;6216888;28;20045;-77
2023/05/15 13:56:24;;;;;;;5.15;2.92;;;19.20;93.20;;;;;;6222938;28;20049;-78
2023/05/15 13:59:26;;;;;;;4.18;2.75;;;19.10;93.60;;;;;;6222387;28;20422;-79
2023/05/15 14:02:28;;;;;;;4.30;2.85;;;19.00;91.90;;;;;;6223013;28;20092;-79
2023/05/15 14:05:30;;;;;;;4.45;2.70;;;19.00;92.30;;;;;;6222926;28;20049;-77
2023/05/15 14:08:31;;;;;;;5.55;2.90;;;19.00;93.10;;;;;;6201321;28;20396;-78
2023/05/15 14:11:35;;;;;;;5.78;3.03;;;18.80;92.90;;;;;;6198329;28;20053;-78
2023/05/15 14:14:37;;;;;;;4.85;3.03;;;18.90;93.30;;;;;;6198128;28;20046;-79
2023/05/15 14:17:39;;;;;;;4.78;3.13;;;18.90;93.70;;;;;;6202477;28;20049;-79
2023/05/15 14:20:42;;;;;;;5.20;2.97;;;18.80;92.70;;;;;;6222523;28;20053;-79
2023/05/15 14:23:44;;;;;;;4.57;3.10;;;18.70;92.20;;;;;;6220264;28;20065;-79
2023/05/15 14:26:48;;;;;;;6.53;3.30;;;18.80;92.20;;;;;;6222441;28;20156;-78
2023/05/15 14:29:50;;;;;;;5.40;3.10;;;18.70;91.50;;;;;;6222659;28;20053;-77
2023/05/15 14:32:51;;;;;;;3.92;2.80;;;18.60;90.80;;;;;;6220267;28;20511;-77
2023/05/15 14:35:53;;;;;;;5.65;2.90;;;18.90;90.80;;;;;;6222160;28;20056;-78
2023/05/15 14:38:55;;;;;;;6.15;2.83;;;19.00;91.40;;;;;;6222349;28;20108;-79
2023/05/15 14:41:58;;;;;;;7.40;3.42;;;19.10;92.30;;;;;;6222162;28;20417;-76
2023/05/15 14:45:00;;;;;;;5.53;3.50;;;19.00;92.90;;;;;;6209015;28;20049;-75
2023/05/15 14:48:02;;;;;;;4.47;2.70;;;18.80;92.90;;;;;;6197469;28;20279;-76
2023/05/15 14:51:05;;;;;;;4.10;2.63;;;18.80;92.40;;;;;;6204892;28;20410;-77
2023/05/15 14:54:06;;;;;;;4.77;2.77;;;18.80;92.10;;;;;;6221766;28;20488;-76
2023/05/15 14:57:10;;;;;;;6.07;2.88;;;18.70;92.10;;;;;;6221144;28;20064;-76
2023/05/15 15:00:14;;;;;;;5.32;3.33;;;18.50;92.60;;;;;;6220131;28;20061;-76
2023/05/15 15:03:17;;;;;;;5.13;2.90;;;18.30;93.20;;;;;;6221496;28;20509;-74
2023/05/15 15:06:19;;;;;;;4.55;3.00;;;18.20;93.40;;;;;;6221052;28;20060;-75
2023/05/15 15:09:21;;;;;;;4.63;2.60;;;18.20;93.40;;;;;;6221191;28;20049;-75
2023/05/15 15:12:25;;;;;;;6.13;2.85;;;18.20;93.60;;;;;;6221144;28;20713;-75
2023/05/15 15:15:27;;;;;;;;;;;18.20;93.00;;;;;;6202253;28;20492;-74
2023/05/15 15:18:29;;;;;;;4.38;2.80;;;17.90;92.90;;;;;;6218239;28;19932;-73
2023/05/15 15:21:30;;;;;;;5.25;3.08;;;18.00;92.90;;;;;;6219037;28;20560;-73
2023/05/15 15:24:32;;;;;;;5.45;2.95;;;17.90;93.30;;;;;;6220572;28;20050;-73
2023/05/15 15:27:36;;;;;;;4.18;2.55;;;17.90;93.60;;;;;;6213309;28;20062;-75
2023/05/15 15:30:38;;;;;;;6.20;2.40;;;17.80;93.30;;;;;;6212899;28;20381;-74
2023/05/15 15:33:40;;;;;;;4.40;2.70;;;17.70;92.90;;;;;;6194492;28;20050;-77
2023/05/15 15:36:42;;;;;;;4.05;2.58;;;17.50;93.30;;;;;;6196871;28;20054;-75
2023/05/15 15:39:44;;;;;;;4.93;2.83;;;17.40;94.00;;;;;;6196603;28;20061;-77
2023/05/15 15:42:47;;;;;;;5.30;2.72;;;17.10;94.60;;;;;;6196653;28;20054;-77
2023/05/15 15:45:49;;;;;;;7.13;2.70;;;17.00;94.30;;;;;;6196353;28;20065;-74
2023/05/15 15:48:51;;;;;;;4.03;2.60;;;16.90;94.30;;;;;;6194655;28;20057;-77
2023/05/15 15:51:53;;;;;;;4.68;2.70;;;16.80;94.60;;;;;;6181945;28;20065;-77
2023/05/15 15:54:55;;;;;;;4.78;2.85;;;16.90;95.00;;;;;;6196082;28;20054;-75
2023/05/15 15:57:58;;;;;;;5.82;3.00;;;16.90;95.20;;;;;;6195260;28;20054;-75
2023/05/15 16:01:00;;;;;;;5.18;3.08;;;16.80;95.60;;;;;;6178938;28;20058;-74
2023/05/15 16:04:02;;;;;;;4.57;2.83;;;16.70;96.10;;;;;;6195743;28;20369;-76
2023/05/15 16:07:05;;;;;;;4.32;2.95;;;16.60;96.30;;;;;;6196140;28;20042;-73
2023/05/15 16:10:10;;;;;;;4.90;3.17;;;16.60;96.70;;;;;;6196000;28;20054;-75
2023/05/15 16:13:13;;;;;;;6.05;3.47;;;16.50;96.90;;;;;;6196199;28;20052;-73
2023/05/15 16:16:15;;;;;;;5.95;3.30;;;16.30;97.40;;;;;;6194972;28;20463;-76
2023/05/15 16:19:17;;;;;;;7.63;3.75;;;16.40;97.10;;;;;;6196310;28;20061;-75
2023/05/15 16:22:19;;;;;;;4.55;3.65;;;16.40;96.90;;;;;;6194275;28;20379;-76
2023/05/15 16:25:21;;;;;;;6.45;3.85;;;16.40;97.00;;;;;;6196151;28;20051;-74
2023/05/15 16:28:24;;;;;;;7.57;3.83;;;16.30;97.20;;;;;;6194593;28;20065;-76
2023/05/15 16:31:26;;;;;;;4.32;2.83;;;16.40;97.30;;;;;;6182087;28;20050;-75
2023/05/15 16:34:28;;;;;;;7.38;3.72;;;16.40;97.50;;;;;;6206242;28;20046;-74
2023/05/15 16:37:30;;;;;;;5.93;3.55;;;16.40;97.60;;;;;;6214816;28;20054;-75
2023/05/15 16:40:31;;;;;;;6.15;3.55;;;16.30;97.60;;;;;;6213277;28;20046;-76
2023/05/15 16:43:36;;;;;;;6.70;3.90;;;16.30;97.70;;;;;;6195950;28;20530;-75
2023/05/15 16:46:38;;;;;;;6.00;3.63;;;16.30;97.90;;;;;;6196654;28;20627;-74
2023/05/15 16:49:40;;;;;;;19.25;10.00;;;16.30;98.20;;;;;;6217635;28;20061;-76
2023/05/15 16:52:44;;;;;;;12.07;6.43;;;16.30;98.60;;;;;;6212647;28;20069;-75
2023/05/15 16:55:46;;;;;;;5.45;3.60;;;16.30;98.10;;;;;;6196372;28;20129;-75
2023/05/15 16:58:51;;;;;;;5.00;3.45;;;16.20;97.90;;;;;;6216376;28;20054;-74
2023/05/15 17:01:53;;;;;;;5.18;3.47;;;16.20;97.80;;;;;;6210583;28;20053;-74
2023/05/15 17:04:55;;;;;;;4.93;3.22;;;16.20;97.80;;;;;;6206811;28;20104;-73
2023/05/15 17:07:58;;;;;;;5.07;3.53;;;16.20;97.80;;;;;;6220060;28;20057;-74
2023/05/15 17:11:00;;;;;;;5.47;3.78;;;16.10;98.10;;;;;;6202749;28;20046;-75
2023/05/15 17:14:03;;;;;;;6.18;3.40;;;16.10;98.40;;;;;;6221545;28;20124;-75
2023/05/15 17:17:05;;;;;;;6.28;4.35;;;16.10;98.40;;;;;;6225622;28;20174;-73
2023/05/15 17:20:09;;;;;;;7.60;4.85;;;16.00;98.50;;;;;;6224606;28;20061;-76
2023/05/15 17:23:11;;;;;;;;;;;16.10;98.70;;;;;;6228558;28;20414;-76
2023/05/15 17:26:13;;;;;;;6.82;3.60;;;16.00;98.70;;;;;;6229517;28;19925;-74
2023/05/15 17:29:16;;;;;;;5.38;3.88;;;16.00;98.80;;;;;;6227567;28;20398;-73
2023/05/15 17:32:19;;;;;;;5.88;4.10;;;15.90;99.00;;;;;;6220039;28;21049;-75
2023/05/15 17:35:21;;;;;;;6.05;3.75;;;15.90;99.40;;;;;;6222053;28;20042;-72
2023/05/15 17:38:23;;;;;;;6.60;3.90;;;15.80;99.30;;;;;;6222048;28;20046;-75
2023/05/15 17:41:25;;;;;;;6.75;3.92;;;15.80;99.60;;;;;;6215850;28;20057;-74
2023/05/15 17:44:29;;;;;;;5.50;3.97;;;15.80;99.70;;;;;;6223105;28;20049;-75
2023/05/15 17:47:31;;;;;;;10.07;5.50;;;15.70;99.70;;;;;;6218849;28;20046;-75
2023/05/15 17:50:36;;;;;;;8.10;5.53;;;15.60;99.90;;;;;;6217935;28;20046;-75
2023/05/15 17:53:38;;;;;;;7.90;5.10;;;15.70;99.90;;;;;;6215143;28;20054;-73
2023/05/15 17:56:40;;;;;;;6.47;4.03;;;15.60;99.90;;;;;;6205363;28;20050;-72
2023/05/15 17:59:43;;;;;;;6.57;4.20;;;15.70;99.90;;;;;;6216811;28;20054;-75
2023/05/15 18:02:45;;;;;;;5.80;4.10;;;15.70;99.90;;;;;;6200452;28;20120;-75
2023/05/15 18:05:47;;;;;;;8.35;5.03;;;15.60;99.90;;;;;;6233347;28;20042;-75
2023/05/15 18:08:51;;;;;;;10.75;6.10;;;15.50;99.90;;;;;;6234660;28;20050;-74
2023/05/15 18:11:52;;;;;;;8.13;4.85;;;15.50;99.90;;;;;;6224208;28;20046;-76
2023/05/15 18:14:56;;;;;;;7.55;4.30;;;15.50;99.90;;;;;;6223589;28;20061;-75
2023/05/15 18:17:58;;;;;;;5.45;3.92;;;15.50;99.90;;;;;;6221938;28;20050;-76
2023/05/15 18:20:59;;;;;;;5.75;4.10;;;15.50;99.90;;;;;;6210765;28;20056;-74
2023/05/15 18:24:01;;;;;;;6.30;4.40;;;15.50;99.90;;;;;;6216725;28;20510;-77
2023/05/15 18:27:04;;;;;;;11.77;8.35;;;15.50;99.90;;;;;;6203690;28;20050;-77
2023/05/15 18:30:09;;;;;;;7.68;5.55;;;15.40;99.90;;;;;;6219108;28;20054;-75
2023/05/15 18:33:11;;;;;;;8.68;5.18;;;15.40;99.90;;;;;;6211735;28;20057;-75
2023/05/15 18:36:13;;;;;;;8.95;5.38;;;15.30;99.90;;;;;;6214721;28;20057;-78
2023/05/15 18:39:15;;;;;;;7.28;4.97;;;15.30;99.90;;;;;;6222875;28;20046;-75
2023/05/15 18:42:17;;;;;;;8.50;5.38;;;15.30;99.90;;;;;;6220200;28;20057;-76
2023/05/15 18:45:21;;;;;;;7.28;5.30;;;15.20;99.90;;;;;;6218725;28;20054;-73
2023/05/15 18:48:23;;;;;;;;;;;15.20;99.90;;;;;;6223231;28;20054;-73
2023/05/15 18:51:24;;;;;;;8.23;5.68;;;15.20;99.90;;;;;;6217561;28;20286;-73
2023/05/15 18:54:27;;;;;;;7.68;5.05;;;15.10;99.90;;;;;;6223263;28;20046;-75
2023/05/15 18:57:29;;;;;;;7.25;5.13;;;15.00;99.90;;;;;;6222348;28;20502;-74
2023/05/15 19:00:33;;;;;;;7.53;5.20;;;15.00;99.90;;;;;;6218261;28;20482;-73
2023/05/15 19:03:36;;;;;;;7.70;5.28;;;15.00;99.90;;;;;;6202837;28;20147;-73
2023/05/15 19:06:38;;;;;;;8.18;5.65;;;15.00;99.90;;;;;;6220507;28;20046;-76
2023/05/15 19:09:40;;;;;;;9.20;5.38;;;15.00;99.90;;;;;;6232670;28;20057;-74
2023/05/15 19:12:43;;;;;;;8.60;5.60;;;14.90;99.90;;;;;;6213024;28;20490;-73
2023/05/15 19:15:52;;;;;;;8.63;5.45;;;14.90;99.90;;;;;;6230924;28;20065;-74
2023/05/15 19:18:53;;;;;;;8.50;6.25;;;14.80;99.90;;;;;;6230672;28;20042;-75
2023/05/15 19:21:55;;;;;;;8.93;6.13;;;14.70;99.90;;;;;;6228468;28;20061;-78
2023/05/15 19:24:58;;;;;;;9.05;5.53;;;14.80;99.90;;;;;;6230044;28;20053;-76
2023/05/15 19:28:00;;;;;;;7.95;5.90;;;14.70;99.90;;;;;;6209397;28;20046;-75
2023/05/15 19:31:04;;;;;;;9.95;6.00;;;14.70;99.90;;;;;;6223047;28;20060;-74
2023/05/15 19:34:06;;;;;;;8.20;5.40;;;14.80;99.90;;;;;;6221884;28;20050;-77
2023/05/15 19:37:08;;;;;;;8.93;5.75;;;14.70;99.90;;;;;;6221202;28;20050;-75
2023/05/15 19:40:10;;;;;;;9.40;5.90;;;14.70;99.90;;;;;;6225248;28;20065;-75
2023/05/15 19:43:13;;;;;;;8.83;5.57;;;14.70;99.90;;;;;;6221691;28;20046;-74
2023/05/15 19:46:16;;;;;;;8.75;6.05;;;14.70;99.90;;;;;;6231802;28;20050;-74
2023/05/15 19:49:18;;;;;;;8.27;5.68;;;14.70;99.90;;;;;;6233600;28;20049;-75
2023/05/15 19:52:20;;;;;;;10.45;6.45;;;14.70;99.90;;;;;;6208826;28;20050;-76
2023/05/15 19:55:22;;;;;;;8.90;6.25;;;14.70;99.90;;;;;;6224901;28;20048;-76
2023/05/15 19:58:24;;;;;;;9.70;6.78;;;14.70;99.90;;;;;;6220584;28;20053;-75
2023/05/15 20:01:27;;;;;;;10.00;6.60;;;14.70;99.90;;;;;;6222751;28;20052;-76
2023/05/15 20:04:31;;;;;;;7.63;5.93;;;14.70;99.90;;;;;;6232804;28;20048;-77
2023/05/15 20:07:33;;;;;;;;;;;14.70;99.90;;;;;;6222674;28;20042;-74
2023/05/15 20:10:34;;;;;;;10.13;6.25;;;14.70;99.90;;;;;;6223197;28;19944;-76
2023/05/15 20:13:37;;;;;;;9.05;6.40;;;14.70;99.90;;;;;;6229710;28;20046;-75
2023/05/15 20:16:40;;;;;;;8.88;6.68;;;14.70;99.90;;;;;;6224972;28;20054;-76
2023/05/15 20:19:42;;;;;;;8.80;6.22;;;14.60;99.90;;;;;;6222465;28;20049;-75
2023/05/15 20:22:44;;;;;;;8.80;6.25;;;14.60;99.90;;;;;;6219927;28;20046;-76
2023/05/15 20:25:47;;;;;;;8.60;6.45;;;14.60;99.90;;;;;;6221698;28;20050;-75
2023/05/15 20:28:49;;;;;;;9.35;6.55;;;14.50;99.90;;;;;;6220707;28;20503;-74
2023/05/15 20:31:52;;;;;;;9.98;6.70;;;14.50;99.90;;;;;;6218812;28;20069;-74
2023/05/15 20:34:54;;;;;;;12.15;7.18;;;14.40;99.90;;;;;;6220081;28;20065;-76
2023/05/15 20:37:57;;;;;;;9.50;6.68;;;14.40;99.90;;;;;;6220178;28;20431;-76
2023/05/15 20:40:59;;;;;;;9.75;6.90;;;14.40;99.90;;;;;;6200833;28;20508;-76
2023/05/15 20:44:01;;;;;;;9.65;6.90;;;14.40;99.90;;;;;;6199123;28;20049;-76
2023/05/15 20:47:05;;;;;;;8.43;6.35;;;14.30;99.90;;;;;;6208115;28;20049;-75
2023/05/15 20:50:08;;;;;;;9.50;6.80;;;14.40;99.90;;;;;;6225799;28;20065;-75
2023/05/15 20:53:09;;;;;;;9.98;7.20;;;14.40;99.90;;;;;;6225170;28;20073;-75
2023/05/15 20:56:11;;;;;;;9.95;7.35;;;14.30;99.90;;;;;;6224035;28;20054;-76
2023/05/15 20:59:13;;;;;;;12.52;7.10;;;14.30;99.90;;;;;;6224377;28;20054;-75
2023/05/15 21:02:16;;;;;;;9.13;6.93;;;14.30;99.90;;;;;;6224817;28;20054;-76
2023/05/15 21:05:18;;;;;;;9.35;7.18;;;14.30;99.90;;;;;;6225168;28;20064;-74
2023/05/15 21:08:20;;;;;;;9.50;7.20;;;14.30;99.90;;;;;;6206550;28;20402;-73
2023/05/15 21:11:22;;;;;;;8.52;6.45;;;14.30;99.90;;;;;;6214917;28;20046;-76
2023/05/15 21:14:24;;;;;;;8.43;6.43;;;14.20;99.90;;;;;;6201075;28;20058;-76
2023/05/15 21:17:27;;;;;;;9.68;6.78;;;14.20;99.90;;;;;;6207269;28;20547;-76
2023/05/15 21:20:29;;;;;;;8.77;6.43;;;14.20;99.90;;;;;;6224228;28;20076;-75
2023/05/15 21:23:32;;;;;;;8.60;6.45;;;14.20;99.90;;;;;;6222454;28;20042;-74
2023/05/15 21:26:33;;;;;;;8.48;6.68;;;14.20;99.90;;;;;;6226954;28;20050;-75
2023/05/15 21:29:35;;;;;;;12.05;7.03;;;14.20;99.90;;;;;;6224722;28;20054;-76
2023/05/15 21:32:38;;;;;;;10.15;7.57;;;14.10;99.90;;;;;;6200787;28;20066;-74
2023/05/15 21:35:40;;;;;;;10.18;7.18;;;14.00;99.90;;;;;;6202112;28;20046;-75
2023/05/15 21:38:43;;;;;;;10.07;7.07;;;13.90;99.90;;;;;;6218164;28;20046;-75
2023/05/15 21:41:45;;;;;;;8.50;6.55;;;14.00;99.90;;;;;;6226917;28;20145;-76
2023/05/15 21:44:47;;;;;;;8.75;6.30;;;13.90;99.90;;;;;;6227060;28;20107;-75
2023/05/15 21:47:50;;;;;;;8.32;5.72;;;13.90;99.90;;;;;;6226490;28;20077;-78
2023/05/15 21:50:55;;;;;;;8.18;6.47;;;13.90;99.90;;;;;;6226447;28;20046;-76
2023/05/15 21:53:57;;;;;;;8.23;5.80;;;13.80;99.90;;;;;;6225882;28;20050;-76
2023/05/15 21:56:58;;;;;;;8.27;5.70;;;13.80;99.90;;;;;;6222861;28;20042;-75
2023/05/15 22:00:01;;;;;;;8.55;5.60;;;13.90;99.90;;;;;;6226910;28;20046;-75
